createdAt,value
2023-03-07T00:00:21.209Z,3.75
2023-03-07T00:02:53.228Z,3.75
2023-03-07T00:05:23.143Z,3.74
2023-03-07T00:07:53.420Z,3.78
2023-03-07T00:10:22.380Z,3.76
2023-03-07T00:12:51.327Z,3.74
2023-03-07T00:15:20.099Z,3.58
2023-03-07T00:17:49.040Z,3.53
2023-03-07T00:20:18.118Z,3.41
2023-03-07T00:22:47.671Z,3.18
2023-03-07T00:25:18.086Z,3.11
2023-03-07T00:27:46.859Z,3.15
2023-03-07T00:30:15.898Z,3.07
2023-03-07T00:32:44.741Z,3.02
2023-03-07T00:35:13.613Z,2.89
2023-03-07T00:37:42.427Z,2.88
2023-03-07T00:40:12.634Z,2.82
2023-03-07T00:42:42.976Z,2.68
2023-03-07T00:45:13.826Z,2.60
2023-03-07T00:47:42.756Z,2.51
2023-03-07T00:50:12.502Z,2.39
2023-03-07T00:52:41.420Z,2.34
2023-03-07T00:55:11.325Z,2.23
2023-03-07T00:57:42.783Z,2.17
2023-03-07T01:00:13.217Z,2.19
2023-03-07T01:02:42.095Z,2.13
2023-03-07T01:05:11.473Z,2.09
2023-03-07T01:07:40.269Z,2.07
2023-03-07T01:10:09.764Z,1.89
2023-03-07T01:12:38.610Z,1.84
2023-03-07T01:15:10.085Z,1.82
2023-03-07T01:17:39.930Z,1.72
2023-03-07T01:20:10.548Z,1.67
2023-03-07T01:22:39.515Z,1.58
2023-03-07T01:25:09.301Z,1.54
2023-03-07T01:27:38.072Z,1.46
2023-03-07T01:30:10.278Z,1.33
2023-03-07T01:32:40.079Z,1.25
2023-03-07T01:35:09.290Z,1.17
2023-03-07T01:37:37.744Z,1.16
2023-03-07T01:40:10.363Z,1.25
2023-03-07T01:42:38.854Z,1.25
2023-03-07T01:45:25.171Z,1.22
2023-03-07T01:47:53.568Z,1.22
2023-03-07T01:50:22.060Z,1.13
2023-03-07T01:52:53.690Z,1.04
2023-03-07T01:55:27.484Z,0.92
2023-03-07T01:58:05.547Z,0.81
2023-03-07T02:00:38.586Z,0.80
2023-03-07T02:03:12.520Z,0.79
2023-03-07T02:05:48.786Z,0.76
2023-03-07T02:08:19.800Z,0.75
2023-03-07T02:10:49.228Z,0.76
2023-03-07T02:13:18.262Z,0.72
2023-03-07T02:15:50.332Z,0.69
2023-03-07T02:18:24.874Z,0.70
2023-03-07T02:21:01.024Z,0.72
2023-03-07T02:23:40.824Z,0.73
2023-03-07T02:26:16.050Z,0.77
2023-03-07T02:28:47.269Z,0.70
2023-03-07T02:31:16.407Z,0.66
2023-03-07T02:33:44.774Z,0.55
2023-03-07T02:36:17.388Z,0.44
2023-03-07T02:38:59.079Z,0.27
2023-03-07T02:41:31.468Z,0.32
2023-03-07T02:44:04.466Z,0.25
2023-03-07T02:46:33.197Z,0.24
2023-03-07T02:49:01.629Z,0.19
2023-03-07T02:51:30.145Z,0.12
2023-03-07T02:54:00.770Z,0.04
2023-03-07T02:56:29.564Z,0.04
2023-03-07T02:58:57.917Z,0.11
2023-03-07T03:01:27.921Z,0.17
2023-03-07T03:03:57.186Z,0.18
2023-03-07T03:06:26.567Z,0.16
2023-03-07T03:08:54.952Z,0.04
2023-03-07T03:11:23.736Z,0.08
2023-03-07T03:13:52.368Z,0.10
2023-03-07T03:16:21.241Z,0.06
2023-03-07T03:18:51.042Z,0.07
2023-03-07T03:21:20.496Z,-0.02
2023-03-07T03:23:48.883Z,-0.12
2023-03-07T03:26:17.334Z,-0.08
2023-03-07T03:28:45.867Z,-0.13
2023-03-07T03:31:15.548Z,-0.20
2023-03-07T03:33:44.895Z,-0.27
2023-03-07T03:36:18.415Z,-0.32
2023-03-07T03:38:50.169Z,-0.38
2023-03-07T03:41:18.684Z,-0.40
2023-03-07T03:43:49.628Z,-0.43
2023-03-07T03:46:20.539Z,-0.41
2023-03-07T03:48:53.530Z,-0.41
2023-03-07T03:51:26.175Z,-0.48
2023-03-07T03:53:57.723Z,-0.48
2023-03-07T03:56:28.080Z,-0.51
2023-03-07T03:58:58.122Z,-0.47
2023-03-07T04:01:28.428Z,-0.48
2023-03-07T04:03:59.397Z,-0.70
2023-03-07T04:06:32.328Z,-0.74
2023-03-07T04:09:02.456Z,-0.45
2023-03-07T04:11:32.719Z,-0.40
2023-03-07T04:14:01.240Z,-0.54
2023-03-07T04:16:30.170Z,-0.49
2023-03-07T04:18:59.361Z,-0.92
2023-03-07T04:21:29.277Z,-0.69
2023-03-07T04:23:59.572Z,-0.71
2023-03-07T04:26:31.622Z,-0.68
2023-03-07T04:29:00.330Z,-0.72
2023-03-07T04:31:48.989Z,-0.64
2023-03-07T04:34:17.842Z,-0.59
2023-03-07T04:36:47.593Z,-0.56
2023-03-07T04:39:16.188Z,-0.58
2023-03-07T04:41:45.935Z,-0.62
2023-03-07T04:44:22.352Z,-0.67
2023-03-07T04:46:50.747Z,-0.66
2023-03-07T04:49:19.045Z,-0.74
2023-03-07T04:51:49.038Z,-0.77
2023-03-07T04:54:18.962Z,-0.81
2023-03-07T04:56:49.153Z,-0.93
2023-03-07T04:59:17.616Z,-1.04
2023-03-07T05:01:47.452Z,-1.09
2023-03-07T05:04:18.676Z,-1.19
2023-03-07T05:06:48.829Z,-1.24
2023-03-07T05:09:17.341Z,-1.28
2023-03-07T05:11:47.204Z,-0.86
2023-03-07T05:14:15.692Z,-1.01
2023-03-07T05:16:44.257Z,-1.14
2023-03-07T05:19:13.444Z,-1.20
2023-03-07T05:21:44.259Z,-1.22
2023-03-07T05:24:14.606Z,-1.20
2023-03-07T05:26:43.690Z,-1.18
2023-03-07T05:29:12.237Z,-1.12
2023-03-07T05:31:40.628Z,-1.07
2023-03-07T05:34:10.931Z,-1.06
2023-03-07T05:36:40.439Z,-1.05
2023-03-07T05:39:09.442Z,-1.02
2023-03-07T05:41:39.457Z,-1.10
2023-03-07T05:44:08.802Z,-1.01
2023-03-07T05:46:37.439Z,-1.11
2023-03-07T05:49:06.203Z,-1.05
2023-03-07T05:51:34.707Z,-1.09
2023-03-07T05:54:03.161Z,-1.14
2023-03-07T05:56:31.866Z,-1.17
2023-03-07T05:59:01.677Z,-1.21
2023-03-07T06:01:30.205Z,-1.29
2023-03-07T06:03:59.411Z,-1.31
2023-03-07T06:06:27.833Z,-1.31
2023-03-07T06:08:56.410Z,-1.29
2023-03-07T06:11:24.978Z,-1.32
2023-03-07T06:13:53.358Z,-1.40
2023-03-07T06:16:23.504Z,-1.45
2023-03-07T06:18:52.466Z,-1.47
2023-03-07T06:21:20.862Z,-1.52
2023-03-07T06:23:49.835Z,-1.57
2023-03-07T06:26:21.407Z,-1.65
2023-03-07T06:28:53.248Z,-1.65
2023-03-07T06:31:24.222Z,-1.60
2023-03-07T06:33:56.071Z,-1.56
2023-03-07T06:36:26.430Z,-1.46
2023-03-07T06:38:58.592Z,-1.41
2023-03-07T06:41:27.371Z,-1.31
2023-03-07T06:43:58.066Z,-1.24
2023-03-07T06:46:30.871Z,-1.15
2023-03-07T06:49:01.433Z,-1.08
2023-03-07T06:51:30.200Z,-0.94
2023-03-07T06:53:59.596Z,-0.90
2023-03-07T06:56:30.599Z,-0.79
2023-03-07T06:59:00.486Z,-0.70
2023-03-07T07:01:30.353Z,-0.67
2023-03-07T07:04:01.048Z,-0.54
2023-03-07T07:06:30.907Z,-0.41
2023-03-07T07:09:00.502Z,-0.39
2023-03-07T07:11:33.886Z,-0.41
2023-03-07T07:14:03.754Z,-0.40
2023-03-07T07:16:36.541Z,-0.28
2023-03-07T07:19:06.344Z,-0.10
2023-03-07T07:21:36.528Z,0.05
2023-03-07T07:24:06.084Z,0.30
2023-03-07T07:26:34.707Z,0.53
2023-03-07T07:29:03.081Z,0.70
2023-03-07T07:31:31.761Z,0.93
2023-03-07T07:34:02.015Z,1.13
2023-03-07T07:36:33.076Z,1.31
2023-03-07T07:39:05.274Z,1.54
2023-03-07T07:41:35.626Z,1.71
2023-03-07T07:44:04.280Z,1.91
2023-03-07T07:46:46.137Z,2.08
2023-03-07T07:49:18.523Z,2.29
2023-03-07T07:51:47.194Z,2.55
2023-03-07T07:54:15.970Z,2.94
2023-03-07T07:56:44.510Z,3.39
2023-03-07T07:59:13.281Z,3.80
2023-03-07T08:01:41.721Z,4.19
2023-03-07T08:04:10.109Z,4.58
2023-03-07T08:06:39.876Z,5.01
2023-03-07T08:09:08.617Z,5.17
2023-03-07T08:11:37.136Z,5.48
2023-03-07T08:14:05.549Z,5.73
2023-03-07T08:16:34.025Z,6.10
2023-03-07T08:19:02.582Z,6.33
2023-03-07T08:21:31.028Z,6.47
2023-03-07T08:24:02.576Z,6.55
2023-03-07T08:26:30.998Z,6.62
2023-03-07T08:28:59.652Z,6.71
2023-03-07T08:31:28.467Z,6.59
2023-03-07T08:33:56.909Z,6.58
2023-03-07T08:36:25.487Z,6.69
2023-03-07T08:38:54.374Z,6.64
2023-03-07T08:41:24.748Z,6.57
2023-03-07T08:43:54.575Z,6.59
2023-03-07T08:46:23.678Z,6.61
2023-03-07T08:48:52.122Z,6.71
2023-03-07T08:51:20.837Z,6.79
2023-03-07T08:53:49.380Z,6.87
2023-03-07T08:56:19.974Z,6.93
2023-03-07T08:58:49.813Z,6.98
2023-03-07T09:01:19.733Z,7.08
2023-03-07T09:03:48.316Z,7.20
2023-03-07T09:06:19.049Z,7.35
2023-03-07T09:08:48.582Z,7.43
2023-03-07T09:11:18.810Z,7.50
2023-03-07T09:13:52.456Z,7.52
2023-03-07T09:16:23.575Z,7.35
2023-03-07T09:18:52.196Z,7.68
2023-03-07T09:21:20.655Z,7.83
2023-03-07T09:23:49.186Z,7.92
2023-03-07T09:26:17.982Z,8.01
2023-03-07T09:28:46.657Z,8.08
2023-03-07T09:31:16.894Z,8.09
2023-03-07T09:33:47.152Z,8.25
2023-03-07T09:36:18.162Z,8.31
2023-03-07T09:38:47.150Z,8.39
2023-03-07T09:41:31.868Z,8.45
2023-03-07T09:44:07.885Z,8.52
2023-03-07T09:47:11.931Z,8.52
2023-03-07T09:49:48.030Z,8.75
2023-03-07T09:52:19.669Z,8.81
2023-03-07T09:54:54.638Z,8.94
2023-03-07T09:57:27.514Z,8.85
2023-03-07T09:59:59.565Z,8.88
2023-03-07T10:02:30.732Z,8.94
2023-03-07T10:05:12.624Z,9.22
2023-03-07T10:07:42.987Z,9.25
2023-03-07T10:10:18.216Z,9.35
2023-03-07T10:13:01.014Z,9.45
2023-03-07T10:15:46.710Z,9.54
2023-03-07T10:18:28.993Z,9.63
2023-03-07T10:21:08.954Z,9.62
2023-03-07T10:23:59.116Z,9.63
2023-03-07T10:26:33.822Z,9.73
2023-03-07T10:29:11.942Z,9.76
2023-03-07T10:31:44.208Z,9.87
2023-03-07T10:34:26.790Z,10.05
2023-03-07T10:37:08.755Z,10.17
2023-03-07T10:39:44.792Z,10.29
2023-03-07T10:42:17.093Z,10.42
2023-03-07T10:44:48.440Z,10.51
2023-03-07T10:47:21.527Z,10.64
2023-03-07T10:49:54.045Z,10.83
2023-03-07T10:52:34.221Z,11.11
2023-03-07T10:55:35.116Z,11.32
2023-03-07T10:58:19.791Z,11.49
2023-03-07T11:00:59.885Z,11.58
2023-03-07T11:03:46.087Z,11.66
2023-03-07T11:06:33.090Z,11.73
2023-03-07T11:09:24.031Z,11.70
2023-03-07T11:11:55.789Z,11.64
2023-03-07T11:14:25.076Z,11.66
2023-03-07T11:16:57.608Z,11.69
2023-03-07T11:19:38.728Z,11.72
2023-03-07T11:22:20.055Z,11.79
2023-03-07T11:24:55.808Z,11.82
2023-03-07T11:27:27.025Z,11.87
2023-03-07T11:30:31.206Z,11.95
2023-03-07T11:33:16.984Z,11.95
2023-03-07T11:36:00.455Z,11.99
2023-03-07T11:38:50.053Z,11.97
2023-03-07T11:41:26.896Z,12.03
2023-03-07T11:44:06.328Z,12.10
2023-03-07T11:46:44.730Z,12.11
2023-03-07T11:49:26.035Z,12.25
2023-03-07T11:52:07.266Z,12.40
2023-03-07T11:54:49.594Z,12.55
2023-03-07T11:57:34.614Z,12.62
2023-03-07T12:00:25.010Z,12.62
2023-03-07T12:03:16.758Z,12.63
2023-03-07T12:06:04.666Z,12.64
2023-03-07T12:08:57.289Z,12.70
2023-03-07T12:11:37.214Z,12.67
2023-03-07T12:14:21.083Z,12.66
2023-03-07T12:16:56.976Z,12.60
2023-03-07T12:19:55.174Z,12.59
2023-03-07T12:22:29.130Z,12.60
2023-03-07T12:25:14.425Z,12.61
2023-03-07T12:27:47.033Z,12.57
2023-03-07T12:30:21.567Z,12.59
2023-03-07T12:32:52.382Z,12.47
2023-03-07T12:35:26.768Z,12.63
2023-03-07T12:38:05.569Z,12.67
2023-03-07T12:40:39.644Z,12.70
2023-03-07T12:43:16.163Z,12.74
2023-03-07T12:45:51.820Z,12.77
2023-03-07T12:48:28.544Z,12.73
2023-03-07T12:51:01.862Z,12.67
2023-03-07T12:53:37.368Z,12.59
2023-03-07T12:56:15.456Z,12.40
2023-03-07T12:58:50.318Z,12.42
2023-03-07T13:01:26.728Z,12.34
2023-03-07T13:04:03.720Z,12.30
2023-03-07T13:06:33.744Z,12.29
2023-03-07T13:09:04.208Z,12.11
2023-03-07T13:11:36.853Z,12.24
2023-03-07T13:14:06.297Z,12.22
2023-03-07T13:16:44.812Z,12.01
2023-03-07T13:19:51.835Z,12.16
2023-03-07T13:22:58.848Z,12.04
2023-03-07T13:25:56.491Z,11.93
2023-03-07T13:28:51.794Z,11.87
2023-03-07T13:31:46.793Z,11.81
2023-03-07T13:34:48.708Z,11.76
2023-03-07T13:37:57.053Z,11.76
2023-03-07T13:40:53.058Z,11.79
2023-03-07T13:43:57.127Z,11.85
2023-03-07T13:46:51.931Z,11.91
2023-03-07T13:49:45.490Z,11.94
2023-03-07T13:52:45.430Z,11.92
2023-03-07T13:55:24.212Z,11.92
2023-03-07T13:57:56.981Z,11.86
2023-03-07T14:00:31.952Z,11.83
2023-03-07T14:03:00.594Z,11.83
2023-03-07T14:05:33.385Z,11.89
2023-03-07T14:08:03.552Z,11.90
2023-03-07T14:10:33.232Z,11.89
2023-03-07T14:13:26.678Z,11.98
2023-03-07T14:16:16.911Z,11.97
2023-03-07T14:18:55.860Z,12.01
2023-03-07T14:21:35.588Z,12.07
2023-03-07T14:24:27.717Z,12.04
2023-03-07T14:26:58.684Z,11.84
2023-03-07T14:29:29.958Z,12.01
2023-03-07T14:32:01.019Z,12.05
2023-03-07T14:34:31.699Z,12.03
2023-03-07T14:37:04.543Z,11.98
2023-03-07T14:39:45.547Z,11.95
2023-03-07T14:42:24.541Z,11.88
2023-03-07T14:45:14.074Z,11.82
2023-03-07T14:48:07.736Z,11.76
2023-03-07T14:50:40.135Z,11.71
2023-03-07T14:53:18.038Z,11.67
2023-03-07T14:55:49.052Z,11.63
2023-03-07T14:58:19.973Z,11.54
2023-03-07T15:00:58.197Z,11.44
2023-03-07T15:03:26.972Z,11.38
2023-03-07T15:05:57.534Z,11.39
2023-03-07T15:08:30.572Z,11.09
2023-03-07T15:11:06.929Z,11.29
2023-03-07T15:13:39.414Z,11.30
2023-03-07T15:16:12.678Z,11.30
2023-03-07T15:18:45.057Z,11.24
2023-03-07T15:21:19.101Z,11.23
2023-03-07T15:23:55.459Z,11.21
2023-03-07T15:26:26.577Z,11.12
2023-03-07T15:29:01.196Z,11.10
2023-03-07T15:31:32.858Z,11.05
2023-03-07T15:34:12.757Z,11.03
2023-03-07T15:36:42.235Z,11.02
2023-03-07T15:39:33.226Z,11.00
2023-03-07T15:42:04.971Z,10.96
2023-03-07T15:44:35.004Z,10.95
2023-03-07T15:47:13.617Z,10.96
2023-03-07T15:49:45.313Z,10.98
2023-03-07T15:52:28.060Z,10.95
2023-03-07T15:55:01.060Z,10.95
2023-03-07T15:57:33.414Z,10.95
2023-03-07T16:00:04.902Z,10.98
2023-03-07T16:02:42.914Z,10.99
2023-03-07T16:05:34.174Z,10.99
2023-03-07T16:08:03.690Z,10.98
2023-03-07T16:10:33.795Z,11.01
2023-03-07T16:13:03.244Z,11.04
2023-03-07T16:15:31.837Z,11.05
2023-03-07T16:18:00.273Z,11.08
2023-03-07T16:20:30.026Z,11.10
2023-03-07T16:22:58.638Z,11.10
2023-03-07T16:25:32.245Z,11.11
2023-03-07T16:28:02.126Z,10.99
2023-03-07T16:30:33.262Z,11.09
2023-03-07T16:33:01.791Z,11.03
2023-03-07T16:35:30.580Z,10.99
2023-03-07T16:37:59.363Z,10.98
2023-03-07T16:40:28.608Z,10.94
2023-03-07T16:42:57.041Z,10.91
2023-03-07T16:45:28.939Z,10.89
2023-03-07T16:47:59.329Z,10.83
2023-03-07T16:50:29.814Z,10.81
2023-03-07T16:52:59.615Z,10.78
2023-03-07T16:55:34.431Z,10.75
2023-03-07T16:58:05.683Z,10.72
2023-03-07T17:00:35.679Z,10.68
2023-03-07T17:03:04.452Z,10.65
2023-03-07T17:05:33.361Z,10.64
2023-03-07T17:08:01.681Z,10.59
2023-03-07T17:10:30.317Z,10.59
2023-03-07T17:13:00.102Z,10.56
2023-03-07T17:15:31.680Z,10.52
2023-03-07T17:18:02.161Z,10.53
2023-03-07T17:20:31.191Z,10.49
2023-03-07T17:22:59.898Z,10.46
2023-03-07T17:25:29.164Z,10.42
2023-03-07T17:28:01.429Z,10.23
2023-03-07T17:30:31.827Z,10.34
2023-03-07T17:33:03.117Z,10.36
2023-03-07T17:35:31.644Z,10.31
2023-03-07T17:37:59.950Z,10.26
2023-03-07T17:40:28.603Z,10.23
2023-03-07T17:42:59.364Z,10.18
2023-03-07T17:45:27.961Z,10.16
2023-03-07T17:47:56.461Z,10.07
2023-03-07T17:50:26.447Z,9.92
2023-03-07T17:52:56.106Z,9.79
2023-03-07T17:55:26.211Z,9.62
2023-03-07T17:57:54.810Z,9.50
2023-03-07T18:00:23.942Z,9.51
2023-03-07T18:02:52.768Z,9.52
2023-03-07T18:05:21.271Z,9.54
2023-03-07T18:07:52.737Z,9.45
2023-03-07T18:10:21.437Z,9.35
2023-03-07T18:12:50.708Z,9.38
2023-03-07T18:15:21.795Z,9.36
2023-03-07T18:17:50.566Z,9.34
2023-03-07T18:20:20.522Z,9.12
2023-03-07T18:22:50.629Z,9.25
2023-03-07T18:25:20.374Z,9.17
2023-03-07T18:27:48.903Z,9.08
2023-03-07T18:30:18.000Z,9.07
2023-03-07T18:32:46.531Z,9.00
2023-03-07T18:35:16.827Z,8.96
2023-03-07T18:37:45.712Z,8.85
2023-03-07T18:40:15.938Z,8.74
2023-03-07T18:42:44.398Z,8.70
2023-03-07T18:45:13.756Z,8.66
2023-03-07T18:47:42.097Z,8.55
2023-03-07T18:50:12.125Z,8.47
2023-03-07T18:52:40.539Z,8.38
2023-03-07T18:55:11.091Z,8.23
2023-03-07T18:57:40.953Z,7.91
2023-03-07T19:00:11.590Z,8.20
2023-03-07T19:02:40.305Z,8.14
2023-03-07T19:05:11.653Z,8.22
2023-03-07T19:07:41.700Z,8.14
2023-03-07T19:10:11.594Z,8.14
2023-03-07T19:12:42.453Z,8.13
2023-03-07T19:15:11.618Z,8.11
2023-03-07T19:17:41.211Z,8.06
2023-03-07T19:20:11.019Z,7.88
2023-03-07T19:22:40.426Z,7.72
2023-03-07T19:25:11.037Z,7.63
2023-03-07T19:27:39.980Z,7.45
2023-03-07T19:30:12.762Z,7.33
2023-03-07T19:32:41.266Z,7.32
2023-03-07T19:35:10.130Z,7.30
2023-03-07T19:37:38.590Z,7.27
2023-03-07T19:40:08.719Z,7.14
2023-03-07T19:42:37.113Z,7.00
2023-03-07T19:45:07.226Z,7.05
2023-03-07T19:47:37.085Z,7.11
2023-03-07T19:50:06.043Z,7.04
2023-03-07T19:52:34.355Z,6.93
2023-03-07T19:55:02.730Z,6.86
2023-03-07T19:57:31.093Z,6.76
2023-03-07T19:59:59.477Z,5.96
2023-03-07T20:02:29.544Z,6.78
2023-03-07T20:05:00.267Z,6.93
2023-03-07T20:07:28.816Z,6.95
2023-03-07T20:09:57.350Z,6.87
2023-03-07T20:12:25.754Z,6.97
2023-03-07T20:14:54.222Z,6.94
2023-03-07T20:17:22.664Z,6.97
2023-03-07T20:19:53.056Z,7.05
2023-03-07T20:22:23.661Z,7.11
2023-03-07T20:24:52.742Z,7.15
2023-03-07T20:27:23.603Z,7.12
2023-03-07T20:29:52.380Z,7.06
2023-03-07T20:32:21.093Z,7.09
2023-03-07T20:34:52.672Z,7.13
2023-03-07T20:37:22.542Z,7.07
2023-03-07T20:39:51.013Z,7.02
2023-03-07T20:42:20.421Z,7.04
2023-03-07T20:44:49.741Z,7.07
2023-03-07T20:47:18.123Z,7.06
2023-03-07T20:49:47.839Z,7.03
2023-03-07T20:52:16.807Z,6.93
2023-03-07T20:54:47.059Z,6.98
2023-03-07T20:57:15.636Z,6.98
2023-03-07T20:59:44.077Z,6.99
2023-03-07T21:02:12.533Z,6.86
2023-03-07T21:04:40.862Z,6.73
2023-03-07T21:07:09.438Z,6.61
2023-03-07T21:09:37.962Z,6.41
2023-03-07T21:12:08.733Z,6.34
2023-03-07T21:14:37.200Z,6.35
2023-03-07T21:17:06.059Z,6.42
2023-03-07T21:19:34.514Z,6.42
2023-03-07T21:22:03.250Z,6.43
2023-03-07T21:24:31.651Z,6.47
2023-03-07T21:27:00.412Z,6.51
2023-03-07T21:29:31.263Z,6.53
2023-03-07T21:31:59.736Z,6.55
2023-03-07T21:34:28.050Z,6.56
2023-03-07T21:36:57.118Z,6.52
2023-03-07T21:39:25.809Z,6.46
2023-03-07T21:41:54.659Z,6.41
2023-03-07T21:44:23.171Z,6.29
2023-03-07T21:46:53.573Z,6.19
2023-03-07T21:49:21.915Z,6.15
2023-03-07T21:51:50.322Z,6.02
2023-03-07T21:54:18.925Z,5.71
2023-03-07T21:56:47.336Z,5.70
2023-03-07T21:59:15.685Z,5.63
2023-03-07T22:01:44.044Z,5.54
2023-03-07T22:04:14.016Z,5.45
2023-03-07T22:06:42.462Z,5.36
2023-03-07T22:09:10.872Z,5.25
2023-03-07T22:11:40.306Z,5.20
2023-03-07T22:14:08.773Z,5.23
2023-03-07T22:16:37.259Z,5.20
2023-03-07T22:19:05.796Z,5.06
2023-03-07T22:21:35.724Z,4.98
2023-03-07T22:24:04.132Z,4.98
2023-03-07T22:26:33.402Z,5.03
2023-03-07T22:29:02.838Z,5.01
2023-03-07T22:31:31.552Z,4.98
2023-03-07T22:34:01.054Z,4.91
2023-03-07T22:36:29.504Z,4.81
2023-03-07T22:38:59.302Z,4.68
2023-03-07T22:41:28.414Z,4.67
2023-03-07T22:43:56.851Z,4.75
2023-03-07T22:46:25.363Z,4.82
2023-03-07T22:48:54.986Z,4.89
2023-03-07T22:51:24.871Z,4.89
2023-03-07T22:53:53.734Z,4.79
2023-03-07T22:56:25.165Z,4.64
2023-03-07T22:58:53.541Z,4.50
2023-03-07T23:01:23.998Z,4.53
2023-03-07T23:03:54.598Z,4.32
2023-03-07T23:06:24.289Z,4.49
2023-03-07T23:08:54.450Z,4.42
2023-03-07T23:11:25.784Z,4.33
2023-03-07T23:13:55.126Z,4.27
2023-03-07T23:16:26.914Z,4.21
2023-03-07T23:18:58.413Z,4.15
2023-03-07T23:21:29.173Z,4.19
2023-03-07T23:23:58.124Z,4.11
2023-03-07T23:26:30.166Z,4.05
2023-03-07T23:28:58.809Z,4.08
2023-03-07T23:31:29.404Z,3.61
2023-03-07T23:33:58.686Z,3.92
2023-03-07T23:36:29.073Z,3.71
2023-03-07T23:38:58.044Z,3.69
2023-03-07T23:41:28.711Z,3.70
2023-03-07T23:43:59.213Z,3.67
2023-03-07T23:46:28.610Z,3.74
2023-03-07T23:48:57.829Z,3.73
2023-03-07T23:51:26.449Z,3.79
2023-03-07T23:53:54.925Z,3.79
2023-03-07T23:56:23.375Z,3.72
2023-03-07T23:58:53.401Z,3.69
